sensor_id;sensor_type;location;lat;lon;timestamp;temperature;humidity
33994;DHT22;20673;48.980;8.138;2023-01-23T00:01:14;1.30;99.90
33994;DHT22;20673;48.980;8.138;2023-01-23T00:03:41;1.30;99.90
33994;DHT22;20673;48.980;8.138;2023-01-23T00:06:09;1.30;99.90
33994;DHT22;20673;48.980;8.138;2023-01-23T00:08:37;1.30;99.90
33994;DHT22;20673;48.980;8.138;2023-01-23T00:11:10;1.30;99.90
33994;DHT22;20673;48.980;8.138;2023-01-23T00:13:34;1.30;99.90
33994;DHT22;20673;48.980;8.138;2023-01-23T00:16:07;1.30;99.90
33994;DHT22;20673;48.980;8.138;2023-01-23T00:18:38;1.30;99.90
33994;DHT22;20673;48.980;8.138;2023-01-23T00:21:05;1.20;99.90
33994;DHT22;20673;48.980;8.138;2023-01-23T00:23:36;1.30;99.90
33994;DHT22;20673;48.980;8.138;2023-01-23T00:26:06;1.30;99.90
33994;DHT22;20673;48.980;8.138;2023-01-23T00:28:35;1.30;99.90
33994;DHT22;20673;48.980;8.138;2023-01-23T00:31:06;1.20;99.90
33994;DHT22;20673;48.980;8.138;2023-01-23T00:33:30;1.20;99.90
33994;DHT22;20673;48.980;8.138;2023-01-23T00:35:56;1.20;99.90
33994;DHT22;20673;48.980;8.138;2023-01-23T00:38:23;1.20;99.90
33994;DHT22;20673;48.980;8.138;2023-01-23T00:40:49;1.20;99.90
33994;DHT22;20673;48.980;8.138;2023-01-23T00:43:15;1.20;99.90
33994;DHT22;20673;48.980;8.138;2023-01-23T00:45:41;1.10;99.90
33994;DHT22;20673;48.980;8.138;2023-01-23T00:48:07;1.20;99.90
33994;DHT22;20673;48.980;8.138;2023-01-23T00:50:32;1.20;99.90
33994;DHT22;20673;48.980;8.138;2023-01-23T00:52:58;1.20;99.90
33994;DHT22;20673;48.980;8.138;2023-01-23T00:55:24;1.20;99.90
33994;DHT22;20673;48.980;8.138;2023-01-23T00:57:50;1.20;99.90
33994;DHT22;20673;48.980;8.138;2023-01-23T01:00:17;1.20;99.90
33994;DHT22;20673;48.980;8.138;2023-01-23T01:02:43;1.20;99.90
33994;DHT22;20673;48.980;8.138;2023-01-23T01:05:09;1.20;99.90
33994;DHT22;20673;48.980;8.138;2023-01-23T01:07:34;1.20;99.90
33994;DHT22;20673;48.980;8.138;2023-01-23T01:10:00;1.20;99.90
33994;DHT22;20673;48.980;8.138;2023-01-23T01:12:26;1.30;99.90
33994;DHT22;20673;48.980;8.138;2023-01-23T01:14:52;1.30;99.90
33994;DHT22;20673;48.980;8.138;2023-01-23T01:17:18;1.20;99.90
33994;DHT22;20673;48.980;8.138;2023-01-23T01:19:44;1.20;99.90
33994;DHT22;20673;48.980;8.138;2023-01-23T01:22:10;1.20;99.90
33994;DHT22;20673;48.980;8.138;2023-01-23T01:24:36;1.20;99.90
33994;DHT22;20673;48.980;8.138;2023-01-23T01:27:02;1.20;99.90
33994;DHT22;20673;48.980;8.138;2023-01-23T01:29:28;1.20;99.90
33994;DHT22;20673;48.980;8.138;2023-01-23T01:31:54;1.30;99.90
33994;DHT22;20673;48.980;8.138;2023-01-23T01:34:20;1.20;99.90
33994;DHT22;20673;48.980;8.138;2023-01-23T01:36:46;1.20;99.90
33994;DHT22;20673;48.980;8.138;2023-01-23T01:39:12;1.20;99.90
33994;DHT22;20673;48.980;8.138;2023-01-23T01:41:38;1.20;99.90
33994;DHT22;20673;48.980;8.138;2023-01-23T01:44:04;1.30;99.90
33994;DHT22;20673;48.980;8.138;2023-01-23T01:46:30;1.20;99.90
33994;DHT22;20673;48.980;8.138;2023-01-23T01:51:32;1.30;99.90
33994;DHT22;20673;48.980;8.138;2023-01-23T01:54:08;1.30;99.90
33994;DHT22;20673;48.980;8.138;2023-01-23T01:56:40;1.30;99.90
33994;DHT22;20673;48.980;8.138;2023-01-23T01:59:15;1.30;99.90
33994;DHT22;20673;48.980;8.138;2023-01-23T02:01:42;1.30;99.90
33994;DHT22;20673;48.980;8.138;2023-01-23T02:04:11;1.30;99.90
33994;DHT22;20673;48.980;8.138;2023-01-23T02:06:37;1.30;99.90
33994;DHT22;20673;48.980;8.138;2023-01-23T02:09:05;1.30;99.90
33994;DHT22;20673;48.980;8.138;2023-01-23T02:11:39;1.30;99.90
33994;DHT22;20673;48.980;8.138;2023-01-23T02:14:05;1.30;99.90
33994;DHT22;20673;48.980;8.138;2023-01-23T02:16:32;1.30;99.90
33994;DHT22;20673;48.980;8.138;2023-01-23T02:19:03;1.30;99.90
33994;DHT22;20673;48.980;8.138;2023-01-23T02:21:31;1.30;99.90
33994;DHT22;20673;48.980;8.138;2023-01-23T02:24:15;1.30;99.90
33994;DHT22;20673;48.980;8.138;2023-01-23T02:26:57;1.30;99.90
33994;DHT22;20673;48.980;8.138;2023-01-23T02:29:23;1.30;99.90
33994;DHT22;20673;48.980;8.138;2023-01-23T02:31:50;1.30;99.90
33994;DHT22;20673;48.980;8.138;2023-01-23T02:34:17;1.30;99.90
33994;DHT22;20673;48.980;8.138;2023-01-23T02:36:44;1.30;99.90
33994;DHT22;20673;48.980;8.138;2023-01-23T02:39:13;1.30;99.90
33994;DHT22;20673;48.980;8.138;2023-01-23T02:41:43;1.30;99.90
33994;DHT22;20673;48.980;8.138;2023-01-23T02:44:12;1.30;99.90
33994;DHT22;20673;48.980;8.138;2023-01-23T02:46:43;1.30;99.90
33994;DHT22;20673;48.980;8.138;2023-01-23T02:49:09;1.30;99.90
33994;DHT22;20673;48.980;8.138;2023-01-23T02:51:35;1.30;99.90
33994;DHT22;20673;48.980;8.138;2023-01-23T02:54:01;1.30;99.90
33994;DHT22;20673;48.980;8.138;2023-01-23T02:56:27;1.30;99.90
33994;DHT22;20673;48.980;8.138;2023-01-23T02:58:52;1.30;99.90
33994;DHT22;20673;48.980;8.138;2023-01-23T03:01:36;1.20;99.90
33994;DHT22;20673;48.980;8.138;2023-01-23T03:04:03;1.10;99.90
33994;DHT22;20673;48.980;8.138;2023-01-23T03:06:35;1.10;99.90
33994;DHT22;20673;48.980;8.138;2023-01-23T03:09:06;1.00;99.90
33994;DHT22;20673;48.980;8.138;2023-01-23T03:11:35;1.00;99.90
33994;DHT22;20673;48.980;8.138;2023-01-23T03:14:02;1.00;99.90
33994;DHT22;20673;48.980;8.138;2023-01-23T03:16:28;1.00;99.90
33994;DHT22;20673;48.980;8.138;2023-01-23T03:18:54;0.90;99.90
33994;DHT22;20673;48.980;8.138;2023-01-23T03:21:22;0.90;99.90
33994;DHT22;20673;48.980;8.138;2023-01-23T03:23:47;1.00;99.90
33994;DHT22;20673;48.980;8.138;2023-01-23T03:26:14;1.00;99.90
33994;DHT22;20673;48.980;8.138;2023-01-23T03:28:40;1.00;99.90
33994;DHT22;20673;48.980;8.138;2023-01-23T03:31:24;1.00;99.90
33994;DHT22;20673;48.980;8.138;2023-01-23T03:33:50;1.00;99.90
33994;DHT22;20673;48.980;8.138;2023-01-23T03:36:17;1.10;99.90
33994;DHT22;20673;48.980;8.138;2023-01-23T03:38:43;1.10;99.90
33994;DHT22;20673;48.980;8.138;2023-01-23T03:41:11;1.10;99.90
33994;DHT22;20673;48.980;8.138;2023-01-23T03:43:52;1.10;99.90
33994;DHT22;20673;48.980;8.138;2023-01-23T03:46:18;1.10;99.90
33994;DHT22;20673;48.980;8.138;2023-01-23T03:48:43;1.10;99.90
33994;DHT22;20673;48.980;8.138;2023-01-23T03:51:09;1.20;99.90
33994;DHT22;20673;48.980;8.138;2023-01-23T03:53:35;1.10;99.90
33994;DHT22;20673;48.980;8.138;2023-01-23T03:56:01;1.10;99.90
33994;DHT22;20673;48.980;8.138;2023-01-23T03:58:27;1.10;99.90
33994;DHT22;20673;48.980;8.138;2023-01-23T04:00:55;1.10;99.90
33994;DHT22;20673;48.980;8.138;2023-01-23T04:03:21;1.10;99.90
33994;DHT22;20673;48.980;8.138;2023-01-23T04:05:47;1.10;99.90
33994;DHT22;20673;48.980;8.138;2023-01-23T04:08:13;1.20;99.90
33994;DHT22;20673;48.980;8.138;2023-01-23T04:10:39;1.20;99.90
33994;DHT22;20673;48.980;8.138;2023-01-23T04:13:05;1.20;99.90
33994;DHT22;20673;48.980;8.138;2023-01-23T04:15:31;1.20;99.90
33994;DHT22;20673;48.980;8.138;2023-01-23T04:17:57;1.20;99.90
33994;DHT22;20673;48.980;8.138;2023-01-23T04:20:23;1.20;99.90
33994;DHT22;20673;48.980;8.138;2023-01-23T04:22:49;1.20;99.90
33994;DHT22;20673;48.980;8.138;2023-01-23T04:25:15;1.20;99.90
33994;DHT22;20673;48.980;8.138;2023-01-23T04:27:41;1.20;99.90
33994;DHT22;20673;48.980;8.138;2023-01-23T04:30:07;1.20;99.90
33994;DHT22;20673;48.980;8.138;2023-01-23T04:32:34;1.20;99.90
33994;DHT22;20673;48.980;8.138;2023-01-23T04:35:00;1.20;99.90
33994;DHT22;20673;48.980;8.138;2023-01-23T04:37:26;1.20;99.90
33994;DHT22;20673;48.980;8.138;2023-01-23T04:39:52;1.30;99.90
33994;DHT22;20673;48.980;8.138;2023-01-23T04:42:17;1.20;99.90
33994;DHT22;20673;48.980;8.138;2023-01-23T04:44:43;1.20;99.90
33994;DHT22;20673;48.980;8.138;2023-01-23T04:47:10;1.20;99.90
33994;DHT22;20673;48.980;8.138;2023-01-23T04:49:36;1.20;99.90
33994;DHT22;20673;48.980;8.138;2023-01-23T04:52:02;1.20;99.90
33994;DHT22;20673;48.980;8.138;2023-01-23T04:54:28;1.20;99.90
33994;DHT22;20673;48.980;8.138;2023-01-23T04:56:54;1.20;99.90
33994;DHT22;20673;48.980;8.138;2023-01-23T04:59:20;1.20;99.90
33994;DHT22;20673;48.980;8.138;2023-01-23T05:01:47;1.20;99.90
33994;DHT22;20673;48.980;8.138;2023-01-23T05:04:13;1.20;99.90
33994;DHT22;20673;48.980;8.138;2023-01-23T05:06:39;1.20;99.90
33994;DHT22;20673;48.980;8.138;2023-01-23T05:09:05;1.20;99.90
33994;DHT22;20673;48.980;8.138;2023-01-23T05:11:32;1.20;99.90
33994;DHT22;20673;48.980;8.138;2023-01-23T05:13:58;1.30;99.90
33994;DHT22;20673;48.980;8.138;2023-01-23T05:16:23;1.30;99.90
33994;DHT22;20673;48.980;8.138;2023-01-23T05:18:49;1.20;99.90
33994;DHT22;20673;48.980;8.138;2023-01-23T05:21:15;1.20;99.90
33994;DHT22;20673;48.980;8.138;2023-01-23T05:23:41;1.20;99.90
33994;DHT22;20673;48.980;8.138;2023-01-23T05:26:07;1.30;99.90
33994;DHT22;20673;48.980;8.138;2023-01-23T05:28:33;1.20;99.90
33994;DHT22;20673;48.980;8.138;2023-01-23T05:30:59;1.30;99.90
33994;DHT22;20673;48.980;8.138;2023-01-23T05:33:25;1.20;99.90
33994;DHT22;20673;48.980;8.138;2023-01-23T05:35:51;1.20;99.90
33994;DHT22;20673;48.980;8.138;2023-01-23T05:38:16;1.30;99.90
33994;DHT22;20673;48.980;8.138;2023-01-23T05:40:42;1.30;99.90
33994;DHT22;20673;48.980;8.138;2023-01-23T05:43:10;1.20;99.90
33994;DHT22;20673;48.980;8.138;2023-01-23T05:45:38;1.20;99.90
33994;DHT22;20673;48.980;8.138;2023-01-23T05:48:04;1.20;99.90
33994;DHT22;20673;48.980;8.138;2023-01-23T05:50:30;1.30;99.90
33994;DHT22;20673;48.980;8.138;2023-01-23T05:52:56;1.30;99.90
33994;DHT22;20673;48.980;8.138;2023-01-23T05:55:22;1.30;99.90
33994;DHT22;20673;48.980;8.138;2023-01-23T05:57:48;1.30;99.90
33994;DHT22;20673;48.980;8.138;2023-01-23T06:00:14;1.30;99.90
33994;DHT22;20673;48.980;8.138;2023-01-23T06:02:42;1.30;99.90
33994;DHT22;20673;48.980;8.138;2023-01-23T06:05:14;1.30;99.90
33994;DHT22;20673;48.980;8.138;2023-01-23T06:07:40;1.30;99.90
33994;DHT22;20673;48.980;8.138;2023-01-23T06:10:06;1.30;99.90
33994;DHT22;20673;48.980;8.138;2023-01-23T06:12:33;1.30;99.90
33994;DHT22;20673;48.980;8.138;2023-01-23T06:15:00;1.30;99.90
33994;DHT22;20673;48.980;8.138;2023-01-23T06:17:26;1.30;99.90
33994;DHT22;20673;48.980;8.138;2023-01-23T06:19:52;1.30;99.90
33994;DHT22;20673;48.980;8.138;2023-01-23T06:22:18;1.20;99.90
33994;DHT22;20673;48.980;8.138;2023-01-23T06:24:44;1.20;99.90
33994;DHT22;20673;48.980;8.138;2023-01-23T06:27:10;1.10;99.90
33994;DHT22;20673;48.980;8.138;2023-01-23T06:29:36;1.10;99.90
33994;DHT22;20673;48.980;8.138;2023-01-23T06:32:02;1.00;99.90
33994;DHT22;20673;48.980;8.138;2023-01-23T06:34:29;1.00;99.90
33994;DHT22;20673;48.980;8.138;2023-01-23T06:36:55;0.90;99.90
33994;DHT22;20673;48.980;8.138;2023-01-23T06:39:21;0.90;99.90
33994;DHT22;20673;48.980;8.138;2023-01-23T06:41:47;0.90;99.90
33994;DHT22;20673;48.980;8.138;2023-01-23T06:44:13;0.80;99.90
33994;DHT22;20673;48.980;8.138;2023-01-23T06:46:39;0.90;99.90
33994;DHT22;20673;48.980;8.138;2023-01-23T06:49:05;0.80;99.90
33994;DHT22;20673;48.980;8.138;2023-01-23T06:51:31;0.80;99.90
33994;DHT22;20673;48.980;8.138;2023-01-23T06:53:57;0.70;99.90
33994;DHT22;20673;48.980;8.138;2023-01-23T06:56:23;0.70;99.90
33994;DHT22;20673;48.980;8.138;2023-01-23T06:58:49;0.70;99.90
33994;DHT22;20673;48.980;8.138;2023-01-23T07:01:16;0.60;99.90
33994;DHT22;20673;48.980;8.138;2023-01-23T07:03:43;0.60;99.90
33994;DHT22;20673;48.980;8.138;2023-01-23T07:06:10;0.60;99.90
33994;DHT22;20673;48.980;8.138;2023-01-23T07:08:37;0.60;99.90
33994;DHT22;20673;48.980;8.138;2023-01-23T07:11:04;0.60;99.90
33994;DHT22;20673;48.980;8.138;2023-01-23T07:13:30;0.70;99.90
33994;DHT22;20673;48.980;8.138;2023-01-23T07:15:56;0.60;99.90
33994;DHT22;20673;48.980;8.138;2023-01-23T07:18:22;0.70;99.90
33994;DHT22;20673;48.980;8.138;2023-01-23T07:20:51;0.70;99.90
33994;DHT22;20673;48.980;8.138;2023-01-23T07:23:17;0.70;99.90
33994;DHT22;20673;48.980;8.138;2023-01-23T07:25:43;0.80;99.90
33994;DHT22;20673;48.980;8.138;2023-01-23T07:28:09;0.80;99.90
33994;DHT22;20673;48.980;8.138;2023-01-23T07:30:35;0.80;99.90
33994;DHT22;20673;48.980;8.138;2023-01-23T07:33:01;0.80;99.90
33994;DHT22;20673;48.980;8.138;2023-01-23T07:35:26;0.90;99.90
33994;DHT22;20673;48.980;8.138;2023-01-23T07:37:53;0.90;99.90
33994;DHT22;20673;48.980;8.138;2023-01-23T07:40:18;0.90;99.90
33994;DHT22;20673;48.980;8.138;2023-01-23T07:42:44;0.90;99.90
33994;DHT22;20673;48.980;8.138;2023-01-23T07:45:11;1.00;99.90
33994;DHT22;20673;48.980;8.138;2023-01-23T07:47:37;0.90;99.90
33994;DHT22;20673;48.980;8.138;2023-01-23T07:50:10;1.00;99.90
33994;DHT22;20673;48.980;8.138;2023-01-23T07:52:37;1.10;99.90
33994;DHT22;20673;48.980;8.138;2023-01-23T07:55:04;1.10;99.90
33994;DHT22;20673;48.980;8.138;2023-01-23T07:57:30;1.10;99.90
33994;DHT22;20673;48.980;8.138;2023-01-23T07:59:58;1.10;99.90
33994;DHT22;20673;48.980;8.138;2023-01-23T08:02:24;1.10;99.90
33994;DHT22;20673;48.980;8.138;2023-01-23T08:04:50;1.20;99.90
33994;DHT22;20673;48.980;8.138;2023-01-23T08:07:16;1.20;99.90
33994;DHT22;20673;48.980;8.138;2023-01-23T08:09:42;1.20;99.90
33994;DHT22;20673;48.980;8.138;2023-01-23T08:12:07;1.30;99.90
33994;DHT22;20673;48.980;8.138;2023-01-23T08:14:33;1.30;99.90
33994;DHT22;20673;48.980;8.138;2023-01-23T08:16:59;1.30;99.90
33994;DHT22;20673;48.980;8.138;2023-01-23T08:19:26;1.40;99.90
33994;DHT22;20673;48.980;8.138;2023-01-23T08:21:52;1.40;99.90
33994;DHT22;20673;48.980;8.138;2023-01-23T08:24:18;1.40;99.90
33994;DHT22;20673;48.980;8.138;2023-01-23T08:26:44;1.40;99.90
33994;DHT22;20673;48.980;8.138;2023-01-23T08:29:10;1.40;99.90
33994;DHT22;20673;48.980;8.138;2023-01-23T08:31:37;1.40;99.90
33994;DHT22;20673;48.980;8.138;2023-01-23T08:34:04;1.50;99.90
33994;DHT22;20673;48.980;8.138;2023-01-23T08:36:30;1.50;99.90
33994;DHT22;20673;48.980;8.138;2023-01-23T08:38:56;1.50;99.90
33994;DHT22;20673;48.980;8.138;2023-01-23T08:41:22;1.60;99.90
33994;DHT22;20673;48.980;8.138;2023-01-23T08:43:49;1.60;99.90
33994;DHT22;20673;48.980;8.138;2023-01-23T08:46:15;1.70;99.90
33994;DHT22;20673;48.980;8.138;2023-01-23T08:48:41;1.70;99.90
33994;DHT22;20673;48.980;8.138;2023-01-23T08:51:09;1.70;99.90
33994;DHT22;20673;48.980;8.138;2023-01-23T08:53:37;1.80;99.90
33994;DHT22;20673;48.980;8.138;2023-01-23T08:56:05;1.80;99.90
33994;DHT22;20673;48.980;8.138;2023-01-23T08:58:32;1.90;99.90
33994;DHT22;20673;48.980;8.138;2023-01-23T09:00:59;1.90;99.90
33994;DHT22;20673;48.980;8.138;2023-01-23T09:03:25;2.00;99.90
33994;DHT22;20673;48.980;8.138;2023-01-23T09:05:51;2.00;99.90
33994;DHT22;20673;48.980;8.138;2023-01-23T09:08:17;2.10;99.90
33994;DHT22;20673;48.980;8.138;2023-01-23T09:10:43;2.10;99.90
33994;DHT22;20673;48.980;8.138;2023-01-23T09:13:10;2.10;99.90
33994;DHT22;20673;48.980;8.138;2023-01-23T09:15:36;2.10;99.90
33994;DHT22;20673;48.980;8.138;2023-01-23T09:18:03;2.20;99.90
33994;DHT22;20673;48.980;8.138;2023-01-23T09:20:30;2.30;99.90
33994;DHT22;20673;48.980;8.138;2023-01-23T09:22:56;2.30;99.90
33994;DHT22;20673;48.980;8.138;2023-01-23T09:25:22;2.20;99.90
33994;DHT22;20673;48.980;8.138;2023-01-23T09:27:48;2.20;99.90
33994;DHT22;20673;48.980;8.138;2023-01-23T09:30:14;2.30;99.90
33994;DHT22;20673;48.980;8.138;2023-01-23T09:32:40;2.30;99.90
33994;DHT22;20673;48.980;8.138;2023-01-23T09:35:06;2.30;99.90
33994;DHT22;20673;48.980;8.138;2023-01-23T09:37:33;2.30;99.90
33994;DHT22;20673;48.980;8.138;2023-01-23T09:40:00;2.40;99.90
33994;DHT22;20673;48.980;8.138;2023-01-23T09:42:29;2.40;99.90
33994;DHT22;20673;48.980;8.138;2023-01-23T09:44:58;2.40;99.90
33994;DHT22;20673;48.980;8.138;2023-01-23T09:47:33;2.50;99.90
33994;DHT22;20673;48.980;8.138;2023-01-23T09:50:03;2.50;99.90
33994;DHT22;20673;48.980;8.138;2023-01-23T09:52:45;2.50;99.90
33994;DHT22;20673;48.980;8.138;2023-01-23T09:55:15;2.60;99.90
33994;DHT22;20673;48.980;8.138;2023-01-23T09:57:57;2.70;99.90
33994;DHT22;20673;48.980;8.138;2023-01-23T10:00:23;2.70;99.90
33994;DHT22;20673;48.980;8.138;2023-01-23T10:02:52;2.60;99.90
33994;DHT22;20673;48.980;8.138;2023-01-23T10:05:20;2.60;99.90
33994;DHT22;20673;48.980;8.138;2023-01-23T10:16:25;2.60;99.90
33994;DHT22;20673;48.980;8.138;2023-01-23T10:19:22;2.60;99.90
33994;DHT22;20673;48.980;8.138;2023-01-23T10:24:54;2.70;99.90
33994;DHT22;20673;48.980;8.138;2023-01-23T10:27:22;2.70;99.90
33994;DHT22;20673;48.980;8.138;2023-01-23T10:29:58;2.70;99.90
33994;DHT22;20673;48.980;8.138;2023-01-23T10:32:27;2.70;99.90
33994;DHT22;20673;48.980;8.138;2023-01-23T10:34:59;2.80;99.90
33994;DHT22;20673;48.980;8.138;2023-01-23T10:40:11;2.80;99.90
33994;DHT22;20673;48.980;8.138;2023-01-23T10:42:38;2.80;99.90
33994;DHT22;20673;48.980;8.138;2023-01-23T10:45:05;2.80;99.90
33994;DHT22;20673;48.980;8.138;2023-01-23T10:47:34;2.80;99.90
33994;DHT22;20673;48.980;8.138;2023-01-23T10:50:03;2.90;99.90
33994;DHT22;20673;48.980;8.138;2023-01-23T10:52:34;2.90;99.90
33994;DHT22;20673;48.980;8.138;2023-01-23T10:55:09;2.90;99.90
33994;DHT22;20673;48.980;8.138;2023-01-23T10:57:47;3.00;99.90
33994;DHT22;20673;48.980;8.138;2023-01-23T11:02:49;2.90;99.90
33994;DHT22;20673;48.980;8.138;2023-01-23T11:08:01;2.80;99.90
33994;DHT22;20673;48.980;8.138;2023-01-23T11:10:27;2.70;99.90
33994;DHT22;20673;48.980;8.138;2023-01-23T11:12:53;2.80;99.90
33994;DHT22;20673;48.980;8.138;2023-01-23T11:15:24;2.70;99.90
33994;DHT22;20673;48.980;8.138;2023-01-23T11:17:53;2.70;99.90
33994;DHT22;20673;48.980;8.138;2023-01-23T11:23:01;2.60;99.90
33994;DHT22;20673;48.980;8.138;2023-01-23T11:33:40;2.70;99.90
33994;DHT22;20673;48.980;8.138;2023-01-23T11:36:26;2.70;99.90
33994;DHT22;20673;48.980;8.138;2023-01-23T11:38:58;2.70;99.90
33994;DHT22;20673;48.980;8.138;2023-01-23T11:41:27;2.70;99.90
33994;DHT22;20673;48.980;8.138;2023-01-23T11:43:55;2.80;99.90
33994;DHT22;20673;48.980;8.138;2023-01-23T11:49:11;3.10;99.90
33994;DHT22;20673;48.980;8.138;2023-01-23T11:52:01;3.20;99.90
33994;DHT22;20673;48.980;8.138;2023-01-23T11:54:32;3.20;99.90
33994;DHT22;20673;48.980;8.138;2023-01-23T11:57:34;3.20;99.90
33994;DHT22;20673;48.980;8.138;2023-01-23T12:10:53;3.60;99.90
33994;DHT22;20673;48.980;8.138;2023-01-23T12:13:29;3.70;99.90
33994;DHT22;20673;48.980;8.138;2023-01-23T12:28:49;3.80;99.90
33994;DHT22;20673;48.980;8.138;2023-01-23T12:31:40;3.90;99.90
33994;DHT22;20673;48.980;8.138;2023-01-23T12:42:31;4.50;99.90
33994;DHT22;20673;48.980;8.138;2023-01-23T12:45:18;4.50;99.90
33994;DHT22;20673;48.980;8.138;2023-01-23T12:58:27;3.80;99.90
33994;DHT22;20673;48.980;8.138;2023-01-23T13:01:07;3.80;99.90
33994;DHT22;20673;48.980;8.138;2023-01-23T13:06:32;3.70;99.90
33994;DHT22;20673;48.980;8.138;2023-01-23T13:09:33;3.60;99.90
33994;DHT22;20673;48.980;8.138;2023-01-23T13:12:09;3.60;99.90
33994;DHT22;20673;48.980;8.138;2023-01-23T13:14:41;3.60;99.90
33994;DHT22;20673;48.980;8.138;2023-01-23T13:23:29;3.60;99.90
33994;DHT22;20673;48.980;8.138;2023-01-23T13:28:47;3.50;99.90
33994;DHT22;20673;48.980;8.138;2023-01-23T13:31:25;3.60;99.90
33994;DHT22;20673;48.980;8.138;2023-01-23T13:36:48;3.60;99.90
33994;DHT22;20673;48.980;8.138;2023-01-23T13:39:27;3.60;99.90
33994;DHT22;20673;48.980;8.138;2023-01-23T13:50:51;3.30;99.90
33994;DHT22;20673;48.980;8.138;2023-01-23T13:53:21;3.40;99.90
33994;DHT22;20673;48.980;8.138;2023-01-23T13:56:10;3.30;99.90
33994;DHT22;20673;48.980;8.138;2023-01-23T13:58:58;3.30;99.90
33994;DHT22;20673;48.980;8.138;2023-01-23T14:01:24;3.40;99.90
33994;DHT22;20673;48.980;8.138;2023-01-23T14:04:13;3.70;99.90
33994;DHT22;20673;48.980;8.138;2023-01-23T14:06:59;4.30;99.90
33994;DHT22;20673;48.980;8.138;2023-01-23T14:09:26;4.50;99.90
33994;DHT22;20673;48.980;8.138;2023-01-23T14:11:57;4.30;99.90
33994;DHT22;20673;48.980;8.138;2023-01-23T14:14:32;4.10;99.90
33994;DHT22;20673;48.980;8.138;2023-01-23T14:17:19;3.80;99.90
33994;DHT22;20673;48.980;8.138;2023-01-23T14:22:20;3.50;99.90
33994;DHT22;20673;48.980;8.138;2023-01-23T14:24:52;3.40;99.90
33994;DHT22;20673;48.980;8.138;2023-01-23T14:27:21;3.40;99.90
33994;DHT22;20673;48.980;8.138;2023-01-23T14:30:02;3.40;99.90
33994;DHT22;20673;48.980;8.138;2023-01-23T14:32:31;3.40;99.90
33994;DHT22;20673;48.980;8.138;2023-01-23T14:34:58;3.30;99.90
33994;DHT22;20673;48.980;8.138;2023-01-23T14:37:24;3.30;99.90
33994;DHT22;20673;48.980;8.138;2023-01-23T14:39:52;3.40;99.90
33994;DHT22;20673;48.980;8.138;2023-01-23T14:42:24;3.30;99.90
33994;DHT22;20673;48.980;8.138;2023-01-23T14:44:51;3.30;99.90
33994;DHT22;20673;48.980;8.138;2023-01-23T14:50:00;3.20;99.90
33994;DHT22;20673;48.980;8.138;2023-01-23T14:52:29;3.20;99.90
33994;DHT22;20673;48.980;8.138;2023-01-23T14:54:57;3.20;99.90
33994;DHT22;20673;48.980;8.138;2023-01-23T14:57:24;3.20;99.90
33994;DHT22;20673;48.980;8.138;2023-01-23T14:59:57;3.20;99.90
33994;DHT22;20673;48.980;8.138;2023-01-23T15:12:57;3.20;99.90
33994;DHT22;20673;48.980;8.138;2023-01-23T15:15:29;3.20;99.90
33994;DHT22;20673;48.980;8.138;2023-01-23T15:17:57;3.20;99.90
33994;DHT22;20673;48.980;8.138;2023-01-23T15:20:32;3.20;99.90
33994;DHT22;20673;48.980;8.138;2023-01-23T15:25:47;3.20;99.90
33994;DHT22;20673;48.980;8.138;2023-01-23T15:28:28;3.10;99.90
33994;DHT22;20673;48.980;8.138;2023-01-23T15:30:56;3.10;99.90
33994;DHT22;20673;48.980;8.138;2023-01-23T15:33:30;3.10;99.90
33994;DHT22;20673;48.980;8.138;2023-01-23T15:36:09;3.00;99.90
33994;DHT22;20673;48.980;8.138;2023-01-23T15:38:52;3.10;99.90
33994;DHT22;20673;48.980;8.138;2023-01-23T15:41:19;3.10;99.90
33994;DHT22;20673;48.980;8.138;2023-01-23T15:43:45;3.00;99.90
33994;DHT22;20673;48.980;8.138;2023-01-23T15:46:11;3.00;99.90
33994;DHT22;20673;48.980;8.138;2023-01-23T15:48:37;3.00;99.90
33994;DHT22;20673;48.980;8.138;2023-01-23T15:51:03;3.00;99.90
33994;DHT22;20673;48.980;8.138;2023-01-23T15:53:29;3.00;99.90
33994;DHT22;20673;48.980;8.138;2023-01-23T15:55:55;3.00;99.90
33994;DHT22;20673;48.980;8.138;2023-01-23T15:58:22;3.00;99.90
33994;DHT22;20673;48.980;8.138;2023-01-23T16:00:48;2.90;99.90
33994;DHT22;20673;48.980;8.138;2023-01-23T16:03:14;2.90;99.90
33994;DHT22;20673;48.980;8.138;2023-01-23T16:05:40;2.90;99.90
33994;DHT22;20673;48.980;8.138;2023-01-23T16:08:16;2.90;99.90
33994;DHT22;20673;48.980;8.138;2023-01-23T16:10:41;2.90;99.90
33994;DHT22;20673;48.980;8.138;2023-01-23T16:13:08;2.90;99.90
33994;DHT22;20673;48.980;8.138;2023-01-23T16:15:36;2.90;99.90
33994;DHT22;20673;48.980;8.138;2023-01-23T16:18:04;2.90;99.90
33994;DHT22;20673;48.980;8.138;2023-01-23T16:20:31;2.90;99.90
33994;DHT22;20673;48.980;8.138;2023-01-23T16:23:11;2.90;99.90
33994;DHT22;20673;48.980;8.138;2023-01-23T16:25:49;2.90;99.90
33994;DHT22;20673;48.980;8.138;2023-01-23T16:28:22;2.90;99.90
33994;DHT22;20673;48.980;8.138;2023-01-23T16:30:50;2.90;99.90
33994;DHT22;20673;48.980;8.138;2023-01-23T16:33:17;2.90;99.90
33994;DHT22;20673;48.980;8.138;2023-01-23T16:35:44;2.90;99.90
33994;DHT22;20673;48.980;8.138;2023-01-23T16:38:21;2.90;99.90
33994;DHT22;20673;48.980;8.138;2023-01-23T16:40:49;2.90;99.90
33994;DHT22;20673;48.980;8.138;2023-01-23T16:43:17;2.90;99.90
33994;DHT22;20673;48.980;8.138;2023-01-23T16:45:43;2.90;99.90
33994;DHT22;20673;48.980;8.138;2023-01-23T16:48:10;2.90;99.90
33994;DHT22;20673;48.980;8.138;2023-01-23T16:50:37;2.90;99.90
33994;DHT22;20673;48.980;8.138;2023-01-23T16:55:37;2.90;99.90
33994;DHT22;20673;48.980;8.138;2023-01-23T16:58:05;2.90;99.90
33994;DHT22;20673;48.980;8.138;2023-01-23T17:00:32;2.90;99.90
33994;DHT22;20673;48.980;8.138;2023-01-23T17:03:00;2.90;99.90
33994;DHT22;20673;48.980;8.138;2023-01-23T17:05:28;3.00;99.90
33994;DHT22;20673;48.980;8.138;2023-01-23T17:07:54;2.90;99.90
33994;DHT22;20673;48.980;8.138;2023-01-23T17:10:21;3.00;99.90
33994;DHT22;20673;48.980;8.138;2023-01-23T17:12:50;2.90;99.90
33994;DHT22;20673;48.980;8.138;2023-01-23T17:15:28;3.00;99.90
33994;DHT22;20673;48.980;8.138;2023-01-23T17:17:56;3.00;99.90
33994;DHT22;20673;48.980;8.138;2023-01-23T17:20:25;3.00;99.90
33994;DHT22;20673;48.980;8.138;2023-01-23T17:22:53;2.90;99.90
33994;DHT22;20673;48.980;8.138;2023-01-23T17:25:20;3.00;99.90
33994;DHT22;20673;48.980;8.138;2023-01-23T17:27:48;3.00;99.90
33994;DHT22;20673;48.980;8.138;2023-01-23T17:30:19;3.00;99.90
33994;DHT22;20673;48.980;8.138;2023-01-23T17:32:49;3.00;99.90
33994;DHT22;20673;48.980;8.138;2023-01-23T17:35:19;3.00;99.90
33994;DHT22;20673;48.980;8.138;2023-01-23T17:37:49;3.00;99.90
33994;DHT22;20673;48.980;8.138;2023-01-23T17:40:15;3.00;99.90
33994;DHT22;20673;48.980;8.138;2023-01-23T17:42:42;3.00;99.90
33994;DHT22;20673;48.980;8.138;2023-01-23T17:45:16;3.00;99.90
33994;DHT22;20673;48.980;8.138;2023-01-23T17:47:41;3.00;99.90
33994;DHT22;20673;48.980;8.138;2023-01-23T17:50:15;3.00;99.90
33994;DHT22;20673;48.980;8.138;2023-01-23T17:52:41;3.00;99.90
33994;DHT22;20673;48.980;8.138;2023-01-23T17:55:19;3.00;99.90
33994;DHT22;20673;48.980;8.138;2023-01-23T17:57:42;3.00;99.90